createdAt,value
2023-01-03T00:02:21.986Z,43.42
2023-01-03T00:04:49.924Z,36.92
2023-01-03T00:07:33.630Z,36.40
2023-01-03T00:10:06.260Z,39.13
2023-01-03T00:12:33.381Z,46.47
2023-01-03T00:15:00.182Z,46.80
2023-01-03T00:17:27.618Z,45.67
2023-01-03T00:19:54.664Z,37.42
2023-01-03T00:22:21.873Z,41.25
2023-01-03T00:24:49.049Z,35.97
2023-01-03T00:27:16.086Z,38.92
2023-01-03T00:29:42.793Z,37.03
2023-01-03T00:32:09.917Z,35.08
2023-01-03T00:34:36.804Z,34.65
2023-01-03T00:37:03.593Z,41.42
2023-01-03T00:39:30.345Z,46.28
2023-01-03T00:41:57.119Z,50.67
2023-01-03T00:44:23.887Z,38.65
2023-01-03T00:46:50.684Z,33.50
2023-01-03T00:49:17.463Z,36.40
2023-01-03T00:51:44.307Z,36.17
2023-01-03T00:54:12.401Z,34.65
2023-01-03T00:56:42.889Z,41.63
2023-01-03T00:59:09.801Z,41.00
2023-01-03T01:01:48.111Z,41.42
2023-01-03T01:04:26.606Z,38.22
2023-01-03T01:06:55.721Z,39.03
2023-01-03T01:09:27.944Z,41.67
2023-01-03T01:11:54.967Z,40.90
2023-01-03T01:14:23.110Z,38.20
2023-01-03T01:16:52.444Z,43.88
2023-01-03T01:19:27.364Z,31.95
2023-01-03T01:21:54.222Z,31.23
2023-01-03T01:24:21.043Z,37.33
2023-01-03T01:26:48.035Z,38.38
2023-01-03T01:29:15.264Z,35.70
2023-01-03T01:31:42.424Z,34.90
2023-01-03T01:34:09.283Z,34.05
2023-01-03T01:36:41.864Z,32.53
2023-01-03T01:39:23.075Z,34.60
2023-01-03T01:42:13.695Z,31.20
2023-01-03T01:44:49.146Z,37.33
2023-01-03T01:48:01.283Z,34.05
2023-01-03T01:50:45.699Z,33.72
2023-01-03T01:53:12.387Z,39.05
2023-01-03T01:55:46.809Z,30.65
2023-01-03T01:58:13.642Z,30.48
2023-01-03T02:00:41.368Z,31.83
2023-01-03T02:03:08.383Z,46.95
2023-01-03T02:05:36.255Z,36.95
2023-01-03T02:08:03.121Z,35.63
2023-01-03T02:11:06.845Z,41.03
2023-01-03T02:13:51.079Z,54.10
2023-01-03T02:16:35.313Z,39.35
2023-01-03T02:19:43.559Z,37.38
2023-01-03T02:22:14.812Z,37.60
2023-01-03T02:25:00.181Z,38.33
2023-01-03T02:27:42.203Z,39.10
2023-01-03T02:30:37.946Z,41.95
2023-01-03T02:33:14.543Z,31.42
2023-01-03T02:35:51.163Z,32.42
2023-01-03T02:38:17.919Z,26.92
2023-01-03T02:40:46.225Z,15.13
2023-01-03T02:43:21.267Z,33.65
2023-01-03T02:46:05.132Z,25.52
2023-01-03T02:48:59.547Z,22.80
2023-01-03T02:51:27.814Z,18.17
2023-01-03T02:53:54.695Z,18.15
2023-01-03T02:56:27.722Z,15.50
2023-01-03T02:58:57.563Z,21.20
2023-01-03T03:01:24.708Z,21.77
2023-01-03T03:03:52.942Z,24.95
2023-01-03T03:06:38.623Z,27.77
2023-01-03T03:09:05.428Z,20.83
2023-01-03T03:11:53.091Z,20.50
2023-01-03T03:14:31.737Z,18.45
2023-01-03T03:17:00.657Z,19.98
2023-01-03T03:19:50.454Z,10.70
2023-01-03T03:22:57.159Z,5.13
2023-01-03T03:25:28.467Z,5.25
2023-01-03T03:28:16.850Z,5.00
2023-01-03T03:30:43.687Z,8.48
2023-01-03T03:33:10.740Z,6.63
2023-01-03T03:36:00.148Z,7.28
2023-01-03T03:38:41.387Z,13.48
2023-01-03T03:42:01.587Z,10.80
2023-01-03T03:45:00.900Z,12.65
2023-01-03T03:47:39.557Z,8.20
2023-01-03T03:50:27.922Z,12.82
2023-01-03T03:52:58.154Z,15.75
2023-01-03T03:56:00.373Z,16.67
2023-01-03T03:58:33.497Z,15.73
2023-01-03T04:01:00.251Z,18.92
2023-01-03T04:03:26.997Z,16.40
2023-01-03T04:05:58.562Z,17.08
2023-01-03T04:08:25.374Z,21.95
2023-01-03T04:10:52.177Z,18.48
2023-01-03T04:13:19.099Z,26.08
2023-01-03T04:15:45.790Z,12.68
2023-01-03T04:18:12.973Z,12.85
2023-01-03T04:20:40.052Z,18.05
2023-01-03T04:23:06.889Z,17.58
2023-01-03T04:25:33.769Z,16.13
2023-01-03T04:28:00.763Z,23.13
2023-01-03T04:30:27.503Z,19.42
2023-01-03T04:32:54.322Z,17.90
2023-01-03T04:35:21.131Z,14.65
2023-01-03T04:37:47.895Z,13.98
2023-01-03T04:40:14.737Z,26.15
2023-01-03T04:43:00.174Z,25.17
2023-01-03T04:45:26.955Z,14.30
2023-01-03T04:47:54.053Z,12.57
2023-01-03T04:50:20.873Z,9.98
2023-01-03T04:52:47.643Z,12.73
2023-01-03T04:55:14.454Z,14.23
2023-01-03T04:57:41.240Z,17.52
2023-01-03T05:00:08.765Z,10.18
2023-01-03T05:02:35.516Z,11.00
2023-01-03T05:05:02.535Z,8.18
2023-01-03T05:07:29.789Z,15.95
2023-01-03T05:09:56.591Z,12.77
2023-01-03T05:12:23.458Z,19.60
2023-01-03T05:14:50.243Z,9.35
2023-01-03T05:17:21.045Z,15.93
2023-01-03T05:20:06.615Z,15.75
2023-01-03T05:22:51.933Z,12.60
2023-01-03T05:25:37.774Z,14.07
2023-01-03T05:28:04.551Z,13.57
2023-01-03T05:30:31.310Z,26.63
2023-01-03T05:32:58.178Z,22.92
2023-01-03T05:35:24.897Z,11.43
2023-01-03T05:37:54.888Z,15.05
2023-01-03T05:40:21.652Z,7.28
2023-01-03T05:42:48.396Z,7.68
2023-01-03T05:45:15.271Z,12.25
2023-01-03T05:47:42.092Z,16.23
2023-01-03T05:50:08.919Z,15.57
2023-01-03T05:52:35.688Z,15.05
2023-01-03T05:55:02.751Z,21.90
2023-01-03T05:57:35.192Z,12.50
2023-01-03T06:00:03.866Z,18.88
2023-01-03T06:02:32.426Z,13.68
2023-01-03T06:04:59.295Z,10.98
2023-01-03T06:07:26.154Z,9.43
2023-01-03T06:09:52.890Z,13.10
2023-01-03T06:12:19.607Z,17.02
2023-01-03T06:14:46.464Z,17.70
2023-01-03T06:17:31.850Z,15.13
2023-01-03T06:19:59.035Z,15.27
2023-01-03T06:22:25.755Z,19.95
2023-01-03T06:24:52.539Z,10.10
2023-01-03T06:27:19.797Z,20.88
2023-01-03T06:29:46.661Z,10.10
2023-01-03T06:32:13.416Z,14.82
2023-01-03T06:34:40.210Z,12.82
2023-01-03T06:37:07.077Z,22.50
2023-01-03T06:39:33.920Z,16.73
2023-01-03T06:42:20.757Z,27.02
2023-01-03T06:45:06.449Z,12.43
2023-01-03T06:47:51.775Z,15.23
2023-01-03T06:50:37.715Z,8.05
2023-01-03T06:53:13.898Z,7.82
2023-01-03T06:55:44.727Z,14.70
2023-01-03T06:58:12.057Z,8.80
2023-01-03T07:00:39.922Z,11.55
2023-01-03T07:03:11.143Z,8.55
2023-01-03T07:05:39.293Z,6.88
2023-01-03T07:08:06.041Z,6.90
2023-01-03T07:10:32.870Z,11.05
2023-01-03T07:13:20.821Z,13.25
2023-01-03T07:15:47.883Z,7.20
2023-01-03T07:18:14.671Z,10.48
2023-01-03T07:20:45.416Z,13.18
2023-01-03T07:23:12.473Z,13.90
2023-01-03T07:25:41.310Z,8.65
2023-01-03T07:28:11.803Z,12.52
2023-01-03T07:30:39.666Z,17.02
2023-01-03T07:33:06.906Z,7.80
2023-01-03T07:35:34.693Z,11.10
2023-01-03T07:38:01.905Z,13.55
2023-01-03T07:40:28.857Z,25.10
2023-01-03T07:43:14.185Z,22.30
2023-01-03T07:45:44.222Z,26.25
2023-01-03T07:48:11.122Z,35.80
2023-01-03T07:50:38.132Z,11.75
2023-01-03T07:53:05.643Z,14.05
2023-01-03T07:55:35.335Z,22.25
2023-01-03T07:58:02.398Z,28.20
2023-01-03T08:00:29.095Z,17.10
2023-01-03T08:02:56.060Z,9.93
2023-01-03T08:05:23.236Z,22.45
2023-01-03T08:07:50.592Z,32.83
2023-01-03T08:10:35.885Z,21.50
2023-01-03T08:13:17.746Z,20.02
2023-01-03T08:15:49.508Z,34.53
2023-01-03T08:18:17.125Z,18.88
2023-01-03T08:20:44.126Z,19.52
2023-01-03T08:23:10.997Z,16.25
2023-01-03T08:25:37.780Z,31.30
2023-01-03T08:28:05.278Z,17.75
2023-01-03T08:30:32.460Z,18.48
2023-01-03T08:33:01.659Z,28.08
2023-01-03T08:35:29.839Z,27.02
2023-01-03T08:37:56.757Z,22.40
2023-01-03T08:40:23.540Z,20.85
2023-01-03T08:42:50.432Z,18.77
2023-01-03T08:45:17.645Z,20.10
2023-01-03T08:47:44.489Z,21.08
2023-01-03T08:50:11.570Z,19.17
2023-01-03T08:52:38.455Z,20.17
2023-01-03T08:55:05.695Z,18.05
2023-01-03T08:57:32.508Z,15.32
2023-01-03T08:59:59.347Z,14.93
2023-01-03T09:02:26.434Z,9.98
2023-01-03T09:04:53.390Z,11.60
2023-01-03T09:07:20.237Z,8.60
2023-01-03T09:09:46.994Z,8.55
2023-01-03T09:12:13.779Z,10.05
2023-01-03T09:14:40.537Z,9.35
2023-01-03T09:17:07.319Z,8.50
2023-01-03T09:19:34.035Z,11.98
2023-01-03T09:22:01.778Z,15.77
2023-01-03T09:24:28.608Z,23.55
2023-01-03T09:26:55.431Z,18.23
2023-01-03T09:29:22.408Z,14.50
2023-01-03T09:31:51.326Z,13.13
2023-01-03T09:34:18.464Z,10.25
2023-01-03T09:36:45.361Z,10.45
2023-01-03T09:39:12.177Z,11.35
2023-01-03T09:41:38.949Z,12.35
2023-01-03T09:44:07.191Z,19.17
2023-01-03T09:46:35.277Z,15.82
2023-01-03T09:49:02.133Z,11.95
2023-01-03T09:51:54.070Z,13.70
2023-01-03T09:54:48.611Z,10.23
2023-01-03T09:57:41.588Z,7.95
2023-01-03T10:00:53.194Z,9.15
2023-01-03T10:03:50.349Z,8.93
2023-01-03T10:06:44.772Z,12.93
2023-01-03T10:09:30.306Z,9.68
2023-01-03T10:12:05.343Z,6.55
2023-01-03T10:15:04.521Z,7.10
2023-01-03T10:17:46.952Z,7.45
2023-01-03T10:20:15.171Z,9.73
2023-01-03T10:22:42.201Z,10.00
2023-01-03T10:25:21.525Z,5.97
2023-01-03T10:27:51.856Z,7.50
2023-01-03T10:30:20.226Z,8.32
2023-01-03T10:32:58.551Z,5.93
2023-01-03T10:35:29.146Z,5.88
2023-01-03T10:37:56.433Z,7.05
2023-01-03T10:40:36.913Z,5.32
2023-01-03T10:43:16.462Z,5.40
2023-01-03T10:45:51.347Z,6.65
2023-01-03T10:48:18.192Z,6.00
2023-01-03T10:50:44.956Z,7.55
2023-01-03T10:53:11.916Z,8.32
2023-01-03T10:55:44.887Z,4.65
2023-01-03T10:58:21.839Z,5.07
2023-01-03T11:00:48.834Z,5.65
2023-01-03T11:03:16.883Z,4.40
2023-01-03T11:06:07.833Z,6.10
2023-01-03T11:08:35.684Z,6.70
2023-01-03T11:11:02.403Z,8.50
2023-01-03T11:13:41.758Z,5.35
2023-01-03T11:16:16.554Z,5.00
2023-01-03T11:18:43.813Z,6.75
2023-01-03T11:21:23.341Z,4.55
2023-01-03T11:24:04.759Z,5.03
2023-01-03T11:27:01.058Z,6.80
2023-01-03T11:29:52.041Z,4.60
2023-01-03T11:32:51.338Z,4.40
2023-01-03T11:35:43.619Z,6.35
2023-01-03T11:38:24.168Z,4.43
2023-01-03T11:41:10.155Z,4.45
2023-01-03T11:43:42.763Z,4.50
2023-01-03T11:46:09.501Z,5.78
2023-01-03T11:48:40.000Z,5.22
2023-01-03T11:51:17.819Z,5.85
2023-01-03T11:53:50.478Z,9.75
2023-01-03T11:56:17.125Z,4.05
2023-01-03T11:59:02.183Z,3.85
2023-01-03T12:01:39.010Z,4.28
2023-01-03T12:04:25.999Z,4.60
2023-01-03T12:10:24.790Z,4.05
2023-01-03T12:13:18.882Z,3.65
2023-01-03T12:15:50.697Z,4.10
2023-01-03T12:18:32.934Z,5.63
2023-01-03T12:21:06.369Z,3.63
2023-01-03T12:23:57.018Z,3.90
2023-01-03T12:26:24.698Z,3.80
2023-01-03T12:28:54.519Z,3.97
2023-01-03T12:31:46.261Z,3.78
2023-01-03T12:34:26.570Z,3.85
2023-01-03T12:37:09.254Z,3.88
2023-01-03T12:39:56.361Z,4.25
2023-01-03T12:42:25.138Z,3.97
2023-01-03T12:45:23.325Z,3.30
2023-01-03T12:48:31.162Z,3.58
2023-01-03T12:50:57.963Z,5.63
2023-01-03T12:53:33.886Z,3.05
2023-01-03T12:56:38.446Z,2.78
2023-01-03T12:59:06.707Z,2.60
2023-01-03T13:01:42.167Z,4.28
2023-01-03T13:04:22.953Z,3.22
2023-01-03T13:07:17.024Z,3.38
2023-01-03T13:09:45.933Z,2.33
2023-01-03T13:12:18.784Z,2.03
2023-01-03T13:14:56.560Z,2.85
2023-01-03T13:17:25.665Z,6.13
2023-01-03T13:20:27.203Z,2.80
2023-01-03T13:23:16.400Z,2.53
2023-01-03T13:25:44.119Z,3.45
2023-01-03T13:28:20.227Z,2.58
2023-01-03T13:30:47.400Z,3.53
2023-01-03T13:33:16.540Z,3.05
2023-01-03T13:35:43.252Z,2.85
2023-01-03T13:38:35.887Z,3.25
2023-01-03T13:41:17.984Z,2.90
2023-01-03T13:43:47.197Z,2.75
2023-01-03T13:46:25.860Z,3.05
2023-01-03T13:49:03.228Z,4.93
2023-01-03T13:51:38.946Z,6.63
2023-01-03T13:54:11.666Z,4.25
2023-01-03T13:59:14.293Z,2.83
2023-01-03T14:02:06.344Z,2.70
2023-01-03T14:05:10.334Z,2.63
2023-01-03T14:07:56.900Z,3.53
2023-01-03T14:10:59.495Z,2.20
2023-01-03T14:13:39.178Z,2.17
2023-01-03T14:16:53.650Z,2.33
2023-01-03T14:19:35.894Z,2.10
2023-01-03T14:22:28.809Z,2.50
2023-01-03T14:24:58.165Z,4.32
2023-01-03T14:27:45.187Z,9.02
2023-01-03T14:30:22.290Z,38.03
2023-01-03T14:32:49.270Z,40.25
2023-01-03T14:35:33.120Z,42.10
2023-01-03T14:38:06.241Z,29.23
2023-01-03T14:40:33.729Z,27.02
2023-01-03T14:43:03.879Z,52.47
2023-01-03T14:45:30.708Z,43.88
2023-01-03T14:47:57.460Z,50.15
2023-01-03T14:50:28.822Z,39.10
2023-01-03T14:52:59.805Z,25.95
2023-01-03T14:55:30.990Z,28.92
2023-01-03T14:57:57.979Z,24.90
2023-01-03T15:00:32.578Z,31.45
2023-01-03T15:03:00.584Z,15.45
2023-01-03T15:05:35.529Z,4.15
2023-01-03T15:08:08.974Z,6.95
2023-01-03T15:10:53.314Z,4.50
2023-01-03T15:13:26.609Z,3.58
2023-01-03T15:15:58.587Z,5.32
2023-01-03T15:18:29.573Z,3.47
2023-01-03T15:20:56.513Z,5.10
2023-01-03T15:23:26.589Z,2.97
2023-01-03T15:25:53.417Z,5.95
2023-01-03T15:28:28.255Z,5.60
2023-01-03T15:31:11.973Z,2.50
2023-01-03T15:33:38.960Z,3.17
2023-01-03T15:36:19.066Z,2.65
2023-01-03T15:38:46.798Z,4.07
2023-01-03T15:41:15.788Z,92.25
2023-01-03T15:43:42.782Z,25.58
2023-01-03T15:46:15.008Z,81.38
2023-01-03T15:48:42.865Z,45.17
2023-01-03T15:51:09.643Z,42.00
2023-01-03T15:53:44.284Z,74.63
2023-01-03T15:56:21.811Z,84.00
2023-01-03T15:58:50.814Z,85.68
2023-01-03T16:01:18.453Z,28.75
2023-01-03T16:03:45.399Z,13.20
2023-01-03T16:06:12.184Z,9.65
2023-01-03T16:08:39.526Z,11.65
2023-01-03T16:11:15.548Z,15.52
2023-01-03T16:13:45.699Z,11.68
2023-01-03T16:16:12.516Z,13.43
2023-01-03T16:18:44.716Z,10.73
2023-01-03T16:21:12.537Z,10.95
2023-01-03T16:23:39.323Z,10.82
2023-01-03T16:26:06.149Z,26.42
2023-01-03T16:28:32.943Z,95.05
2023-01-03T16:31:15.944Z,42.35
2023-01-03T16:33:42.875Z,25.52
2023-01-03T16:36:32.633Z,14.40
2023-01-03T16:38:59.682Z,19.65
2023-01-03T16:41:26.585Z,20.70
2023-01-03T16:43:54.379Z,29.63
2023-01-03T16:46:22.495Z,17.75
2023-01-03T16:48:52.755Z,11.43
2023-01-03T16:51:21.592Z,12.73
2023-01-03T16:53:48.446Z,9.95
2023-01-03T16:56:15.207Z,12.35
2023-01-03T16:58:41.961Z,19.50
2023-01-03T17:01:08.831Z,24.52
2023-01-03T17:03:41.524Z,41.08
2023-01-03T17:06:37.424Z,55.05
2023-01-03T17:09:26.595Z,36.85
2023-01-03T17:11:53.432Z,39.28
2023-01-03T17:14:21.115Z,36.60
2023-01-03T17:16:48.298Z,31.38
2023-01-03T17:20:01.630Z,20.55
2023-01-03T17:22:06.471Z,31.02
2023-01-03T17:24:33.304Z,61.67
2023-01-03T17:27:04.089Z,65.97
2023-01-03T17:29:30.906Z,71.90
2023-01-03T17:31:58.034Z,58.03
2023-01-03T17:34:26.700Z,53.72
2023-01-03T17:36:53.956Z,42.72
2023-01-03T17:39:20.854Z,30.02
2023-01-03T17:42:06.277Z,33.15
2023-01-03T17:44:33.087Z,33.35
2023-01-03T17:47:39.871Z,30.88
2023-01-03T17:50:07.532Z,34.17
2023-01-03T17:52:36.225Z,32.00
2023-01-03T17:55:03.948Z,21.33
2023-01-03T17:57:30.904Z,30.30
2023-01-03T17:59:57.797Z,34.60
2023-01-03T18:02:25.714Z,17.58
2023-01-03T18:07:39.511Z,21.50
2023-01-03T18:10:07.652Z,32.50
2023-01-03T18:12:34.450Z,44.60
2023-01-03T18:15:01.258Z,29.30
2023-01-03T18:17:29.705Z,29.10
2023-01-03T18:19:57.110Z,68.35
2023-01-03T18:22:24.007Z,92.28
2023-01-03T18:24:51.888Z,75.78
2023-01-03T18:27:19.044Z,47.38
2023-01-03T18:29:45.749Z,54.97
2023-01-03T18:32:27.931Z,45.17
2023-01-03T18:34:54.955Z,42.03
2023-01-03T18:37:23.044Z,95.35
2023-01-03T18:39:50.837Z,54.75
2023-01-03T18:42:36.096Z,25.48
2023-01-03T18:45:02.978Z,43.17
2023-01-03T18:47:30.093Z,33.67
2023-01-03T18:49:56.922Z,45.45
2023-01-03T18:52:29.284Z,39.55
2023-01-03T18:54:56.124Z,38.38
2023-01-03T18:57:22.902Z,28.20
2023-01-03T18:59:50.496Z,38.15
2023-01-03T19:02:18.977Z,25.83
2023-01-03T19:04:51.080Z,35.55
2023-01-03T19:07:31.848Z,41.40
2023-01-03T19:09:58.871Z,26.90
2023-01-03T19:12:25.599Z,36.40
2023-01-03T19:14:52.417Z,37.28
2023-01-03T19:17:19.510Z,29.02
2023-01-03T19:19:46.375Z,40.67
2023-01-03T19:22:19.596Z,35.35
2023-01-03T19:24:46.360Z,52.40
2023-01-03T19:27:15.145Z,34.88
2023-01-03T19:29:42.034Z,27.98
2023-01-03T19:32:20.224Z,38.38
2023-01-03T19:34:47.251Z,28.42
2023-01-03T19:37:13.987Z,277.80
2023-01-03T19:39:40.832Z,168.15
2023-01-03T19:42:29.707Z,37.65
2023-01-03T19:44:56.576Z,257.10
2023-01-03T19:47:23.298Z,1005.40
2023-01-03T19:49:50.230Z,683.05
2023-01-03T19:52:16.981Z,553.00
2023-01-03T19:54:44.066Z,921.60
2023-01-03T19:57:21.217Z,417.23
2023-01-03T19:59:51.256Z,789.60
2023-01-03T20:02:26.388Z,637.65
2023-01-03T20:04:53.711Z,974.80
2023-01-03T20:07:20.660Z,808.58
2023-01-03T20:09:47.673Z,998.85
2023-01-03T20:12:15.464Z,809.42
2023-01-03T20:14:44.590Z,1245.05
2023-01-03T20:17:21.874Z,542.08
2023-01-03T20:19:49.001Z,416.52
2023-01-03T20:22:52.962Z,646.72
2023-01-03T20:25:04.381Z,950.35
2023-01-03T20:27:31.383Z,1046.55
2023-01-03T20:29:58.163Z,695.10
2023-01-03T20:32:25.146Z,870.92
2023-01-03T20:34:52.213Z,496.73
2023-01-03T20:37:19.105Z,1006.88
2023-01-03T20:39:46.101Z,824.22
2023-01-03T20:42:21.235Z,805.53
2023-01-03T20:44:48.262Z,379.08
2023-01-03T20:47:15.155Z,666.88
2023-01-03T20:49:42.033Z,612.15
2023-01-03T20:52:14.501Z,862.47
2023-01-03T20:54:41.345Z,490.67
2023-01-03T20:57:15.375Z,951.67
2023-01-03T20:59:42.359Z,850.70
2023-01-03T21:02:10.443Z,664.67
2023-01-03T21:04:38.130Z,873.17
2023-01-03T21:07:11.130Z,664.05
2023-01-03T21:09:38.543Z,762.65
2023-01-03T21:12:05.406Z,463.48
2023-01-03T21:14:32.296Z,266.23
2023-01-03T21:16:59.145Z,450.08
2023-01-03T21:19:26.191Z,266.27
2023-01-03T21:21:54.947Z,342.98
2023-01-03T21:24:23.411Z,549.25
2023-01-03T21:26:50.460Z,413.27
2023-01-03T21:29:17.364Z,350.25
2023-01-03T21:31:44.207Z,449.75
2023-01-03T21:34:20.707Z,449.60
2023-01-03T21:36:47.909Z,578.95
2023-01-03T21:39:14.889Z,187.95
2023-01-03T21:42:00.370Z,353.88
2023-01-03T21:44:27.209Z,281.73
2023-01-03T21:46:53.946Z,591.35
2023-01-03T21:49:20.804Z,603.92
2023-01-03T21:51:47.571Z,571.17
2023-01-03T21:54:14.396Z,335.42
2023-01-03T21:56:47.264Z,699.85
2023-01-03T21:59:14.818Z,539.80
2023-01-03T22:02:02.108Z,371.67
2023-01-03T22:04:29.015Z,458.63
2023-01-03T22:07:00.654Z,621.65
2023-01-03T22:09:47.272Z,462.70
2023-01-03T22:12:15.814Z,398.08
2023-01-03T22:14:44.267Z,556.63
2023-01-03T22:17:11.337Z,402.52
2023-01-03T22:19:38.055Z,423.27
2023-01-03T22:22:04.959Z,566.28
2023-01-03T22:24:31.865Z,327.13
2023-01-03T22:26:58.658Z,536.75
2023-01-03T22:29:25.423Z,483.23
2023-01-03T22:31:52.387Z,125.57
2023-01-03T22:34:19.179Z,274.00
2023-01-03T22:36:46.022Z,512.58
2023-01-03T22:39:12.933Z,654.22
2023-01-03T22:41:39.701Z,516.88
2023-01-03T22:44:06.588Z,713.80
2023-01-03T22:46:33.429Z,518.42
2023-01-03T22:49:00.146Z,564.95
2023-01-03T22:51:27.008Z,635.97
2023-01-03T22:53:54.176Z,284.20
2023-01-03T22:56:21.007Z,384.60
2023-01-03T22:58:47.764Z,382.88
2023-01-03T23:01:19.126Z,508.02
2023-01-03T23:03:46.594Z,485.88
2023-01-03T23:06:15.765Z,513.83
2023-01-03T23:08:42.883Z,378.00
2023-01-03T23:11:34.166Z,570.85
2023-01-03T23:14:02.554Z,785.83
2023-01-03T23:16:29.380Z,556.10
2023-01-03T23:18:56.273Z,479.45
2023-01-03T23:21:23.016Z,414.38
2023-01-03T23:23:50.301Z,566.88
2023-01-03T23:26:17.070Z,410.17
2023-01-03T23:28:44.169Z,326.98
2023-01-03T23:31:11.042Z,487.05
2023-01-03T23:33:37.893Z,342.15
2023-01-03T23:36:05.908Z,573.53
2023-01-03T23:38:32.693Z,469.85
2023-01-03T23:40:59.922Z,538.67
2023-01-03T23:43:27.422Z,665.72
2023-01-03T23:45:54.176Z,671.00
2023-01-03T23:48:21.139Z,695.83
2023-01-03T23:50:47.903Z,531.83
2023-01-03T23:53:14.671Z,635.60
2023-01-03T23:55:41.391Z,482.75
2023-01-03T23:58:08.462Z,509.30
